sensor_id;sensor_type;location;lat;lon;timestamp;P1;durP1;ratioP1;P2;durP2;ratioP2
25948;SDS011;13961;51.178;4.448;2023-07-31T00:01:57;14.93;;;4.60;;
25948;SDS011;13961;51.178;4.448;2023-07-31T00:04:23;20.55;;;5.18;;
25948;SDS011;13961;51.178;4.448;2023-07-31T00:06:48;17.35;;;5.07;;
25948;SDS011;13961;51.178;4.448;2023-07-31T00:09:14;14.77;;;4.65;;
25948;SDS011;13961;51.178;4.448;2023-07-31T00:11:39;12.80;;;5.25;;
25948;SDS011;13961;51.178;4.448;2023-07-31T00:14:05;15.32;;;4.85;;
25948;SDS011;13961;51.178;4.448;2023-07-31T00:16:31;17.58;;;4.80;;
25948;SDS011;13961;51.178;4.448;2023-07-31T00:18:57;19.58;;;4.55;;
25948;SDS011;13961;51.178;4.448;2023-07-31T00:21:22;16.42;;;5.72;;
25948;SDS011;13961;51.178;4.448;2023-07-31T00:23:50;13.18;;;5.13;;
25948;SDS011;13961;51.178;4.448;2023-07-31T00:26:16;19.38;;;5.70;;
25948;SDS011;13961;51.178;4.448;2023-07-31T00:28:41;14.40;;;5.57;;
25948;SDS011;13961;51.178;4.448;2023-07-31T00:31:07;15.60;;;5.60;;
25948;SDS011;13961;51.178;4.448;2023-07-31T00:33:34;16.55;;;5.32;;
25948;SDS011;13961;51.178;4.448;2023-07-31T00:36:02;14.82;;;4.88;;
25948;SDS011;13961;51.178;4.448;2023-07-31T00:38:28;19.85;;;5.68;;
25948;SDS011;13961;51.178;4.448;2023-07-31T00:40:53;19.45;;;5.53;;
25948;SDS011;13961;51.178;4.448;2023-07-31T00:43:19;17.33;;;5.38;;
25948;SDS011;13961;51.178;4.448;2023-07-31T00:45:44;13.93;;;5.72;;
25948;SDS011;13961;51.178;4.448;2023-07-31T00:48:10;18.45;;;5.13;;
25948;SDS011;13961;51.178;4.448;2023-07-31T00:50:36;21.27;;;5.47;;
25948;SDS011;13961;51.178;4.448;2023-07-31T00:53:03;13.07;;;4.60;;
25948;SDS011;13961;51.178;4.448;2023-07-31T00:55:29;18.15;;;5.40;;
25948;SDS011;13961;51.178;4.448;2023-07-31T00:57:56;16.55;;;5.40;;
25948;SDS011;13961;51.178;4.448;2023-07-31T01:00:22;16.73;;;5.93;;
25948;SDS011;13961;51.178;4.448;2023-07-31T01:02:49;17.40;;;5.35;;
25948;SDS011;13961;51.178;4.448;2023-07-31T01:05:15;17.67;;;5.68;;
25948;SDS011;13961;51.178;4.448;2023-07-31T01:07:45;18.60;;;5.35;;
25948;SDS011;13961;51.178;4.448;2023-07-31T01:10:21;17.52;;;5.72;;
25948;SDS011;13961;51.178;4.448;2023-07-31T01:12:51;13.63;;;5.53;;
25948;SDS011;13961;51.178;4.448;2023-07-31T01:15:20;11.57;;;4.78;;
25948;SDS011;13961;51.178;4.448;2023-07-31T01:17:46;13.77;;;4.90;;
25948;SDS011;13961;51.178;4.448;2023-07-31T01:20:12;13.05;;;5.35;;
25948;SDS011;13961;51.178;4.448;2023-07-31T01:31:29;13.65;;;4.82;;
25948;SDS011;13961;51.178;4.448;2023-07-31T01:33:56;16.45;;;5.38;;
25948;SDS011;13961;51.178;4.448;2023-07-31T01:36:24;16.75;;;4.82;;
25948;SDS011;13961;51.178;4.448;2023-07-31T01:38:50;14.18;;;5.00;;
25948;SDS011;13961;51.178;4.448;2023-07-31T01:41:17;14.80;;;5.47;;
25948;SDS011;13961;51.178;4.448;2023-07-31T01:43:43;18.67;;;5.70;;
25948;SDS011;13961;51.178;4.448;2023-07-31T01:46:10;19.83;;;5.30;;
25948;SDS011;13961;51.178;4.448;2023-07-31T01:48:36;21.60;;;5.78;;
25948;SDS011;13961;51.178;4.448;2023-07-31T01:51:02;18.90;;;5.03;;
25948;SDS011;13961;51.178;4.448;2023-07-31T01:53:28;18.15;;;5.03;;
25948;SDS011;13961;51.178;4.448;2023-07-31T01:55:56;23.08;;;5.35;;
25948;SDS011;13961;51.178;4.448;2023-07-31T01:58:21;16.73;;;5.00;;
25948;SDS011;13961;51.178;4.448;2023-07-31T02:00:47;15.65;;;5.07;;
25948;SDS011;13961;51.178;4.448;2023-07-31T02:03:14;16.48;;;4.97;;
25948;SDS011;13961;51.178;4.448;2023-07-31T02:05:44;16.27;;;5.18;;
25948;SDS011;13961;51.178;4.448;2023-07-31T02:08:10;16.70;;;4.97;;
25948;SDS011;13961;51.178;4.448;2023-07-31T02:10:36;23.13;;;5.03;;
25948;SDS011;13961;51.178;4.448;2023-07-31T02:13:02;13.57;;;4.53;;
25948;SDS011;13961;51.178;4.448;2023-07-31T02:15:29;17.42;;;5.40;;
25948;SDS011;13961;51.178;4.448;2023-07-31T02:17:55;14.32;;;5.00;;
25948;SDS011;13961;51.178;4.448;2023-07-31T02:20:20;18.33;;;4.95;;
25948;SDS011;13961;51.178;4.448;2023-07-31T02:22:46;14.90;;;4.72;;
25948;SDS011;13961;51.178;4.448;2023-07-31T02:25:12;12.98;;;4.95;;
25948;SDS011;13961;51.178;4.448;2023-07-31T02:27:37;15.43;;;4.88;;
25948;SDS011;13961;51.178;4.448;2023-07-31T02:30:03;14.30;;;4.72;;
25948;SDS011;13961;51.178;4.448;2023-07-31T02:32:29;16.38;;;5.35;;
25948;SDS011;13961;51.178;4.448;2023-07-31T02:34:54;19.92;;;5.13;;
25948;SDS011;13961;51.178;4.448;2023-07-31T02:37:21;14.15;;;4.60;;
25948;SDS011;13961;51.178;4.448;2023-07-31T02:39:47;16.98;;;5.22;;
25948;SDS011;13961;51.178;4.448;2023-07-31T02:42:13;15.00;;;4.85;;
25948;SDS011;13961;51.178;4.448;2023-07-31T02:44:39;14.13;;;4.60;;
25948;SDS011;13961;51.178;4.448;2023-07-31T02:47:04;17.02;;;5.07;;
25948;SDS011;13961;51.178;4.448;2023-07-31T02:49:30;15.25;;;4.70;;
25948;SDS011;13961;51.178;4.448;2023-07-31T02:51:56;15.32;;;4.68;;
25948;SDS011;13961;51.178;4.448;2023-07-31T02:54:21;20.58;;;4.70;;
25948;SDS011;13961;51.178;4.448;2023-07-31T02:56:47;17.08;;;4.80;;
25948;SDS011;13961;51.178;4.448;2023-07-31T02:59:13;22.63;;;5.38;;
25948;SDS011;13961;51.178;4.448;2023-07-31T03:01:39;12.85;;;4.55;;
25948;SDS011;13961;51.178;4.448;2023-07-31T03:04:04;14.43;;;5.43;;
25948;SDS011;13961;51.178;4.448;2023-07-31T03:06:30;13.32;;;4.85;;
25948;SDS011;13961;51.178;4.448;2023-07-31T03:08:56;17.05;;;4.40;;
25948;SDS011;13961;51.178;4.448;2023-07-31T03:11:21;18.27;;;5.07;;
25948;SDS011;13961;51.178;4.448;2023-07-31T03:13:47;13.23;;;4.65;;
25948;SDS011;13961;51.178;4.448;2023-07-31T03:16:13;12.27;;;4.95;;
25948;SDS011;13961;51.178;4.448;2023-07-31T03:18:38;15.50;;;4.82;;
25948;SDS011;13961;51.178;4.448;2023-07-31T03:21:04;12.27;;;4.50;;
25948;SDS011;13961;51.178;4.448;2023-07-31T03:23:31;12.43;;;4.47;;
25948;SDS011;13961;51.178;4.448;2023-07-31T03:26:01;14.45;;;4.75;;
25948;SDS011;13961;51.178;4.448;2023-07-31T03:28:28;12.38;;;4.78;;
25948;SDS011;13961;51.178;4.448;2023-07-31T03:30:56;16.33;;;5.07;;
25948;SDS011;13961;51.178;4.448;2023-07-31T03:33:22;11.75;;;4.10;;
25948;SDS011;13961;51.178;4.448;2023-07-31T03:35:48;14.32;;;4.50;;
25948;SDS011;13961;51.178;4.448;2023-07-31T03:38:14;14.65;;;5.15;;
25948;SDS011;13961;51.178;4.448;2023-07-31T03:40:39;13.82;;;4.20;;
25948;SDS011;13961;51.178;4.448;2023-07-31T03:43:05;17.42;;;4.88;;
25948;SDS011;13961;51.178;4.448;2023-07-31T03:45:32;16.05;;;4.43;;
25948;SDS011;13961;51.178;4.448;2023-07-31T03:47:57;13.40;;;4.75;;
25948;SDS011;13961;51.178;4.448;2023-07-31T03:50:23;13.50;;;5.07;;
25948;SDS011;13961;51.178;4.448;2023-07-31T03:52:50;9.52;;;4.38;;
25948;SDS011;13961;51.178;4.448;2023-07-31T03:55:16;12.73;;;5.25;;
25948;SDS011;13961;51.178;4.448;2023-07-31T03:57:41;14.65;;;5.03;;
25948;SDS011;13961;51.178;4.448;2023-07-31T04:00:07;14.32;;;4.88;;
25948;SDS011;13961;51.178;4.448;2023-07-31T04:02:33;13.27;;;5.18;;
25948;SDS011;13961;51.178;4.448;2023-07-31T04:04:59;17.75;;;5.30;;
25948;SDS011;13961;51.178;4.448;2023-07-31T04:07:24;17.38;;;5.63;;
25948;SDS011;13961;51.178;4.448;2023-07-31T04:09:50;16.95;;;5.45;;
25948;SDS011;13961;51.178;4.448;2023-07-31T04:12:16;13.70;;;5.53;;
25948;SDS011;13961;51.178;4.448;2023-07-31T04:14:41;10.32;;;5.13;;
25948;SDS011;13961;51.178;4.448;2023-07-31T04:17:07;11.30;;;5.60;;
25948;SDS011;13961;51.178;4.448;2023-07-31T04:19:33;14.18;;;5.60;;
25948;SDS011;13961;51.178;4.448;2023-07-31T04:21:59;16.23;;;5.75;;
25948;SDS011;13961;51.178;4.448;2023-07-31T04:24:24;13.32;;;5.60;;
25948;SDS011;13961;51.178;4.448;2023-07-31T04:26:50;13.95;;;5.70;;
25948;SDS011;13961;51.178;4.448;2023-07-31T04:29:19;13.35;;;5.60;;
25948;SDS011;13961;51.178;4.448;2023-07-31T04:31:45;15.80;;;5.85;;
25948;SDS011;13961;51.178;4.448;2023-07-31T04:34:10;10.65;;;4.90;;
25948;SDS011;13961;51.178;4.448;2023-07-31T04:36:39;13.02;;;5.72;;
25948;SDS011;13961;51.178;4.448;2023-07-31T04:39:07;13.57;;;5.90;;
25948;SDS011;13961;51.178;4.448;2023-07-31T04:41:32;15.68;;;6.15;;
25948;SDS011;13961;51.178;4.448;2023-07-31T04:43:58;15.50;;;6.18;;
25948;SDS011;13961;51.178;4.448;2023-07-31T04:46:30;14.00;;;5.93;;
25948;SDS011;13961;51.178;4.448;2023-07-31T04:48:56;12.57;;;5.35;;
25948;SDS011;13961;51.178;4.448;2023-07-31T04:51:22;17.52;;;6.18;;
25948;SDS011;13961;51.178;4.448;2023-07-31T04:53:48;10.02;;;5.20;;
25948;SDS011;13961;51.178;4.448;2023-07-31T04:56:14;11.85;;;5.93;;
25948;SDS011;13961;51.178;4.448;2023-07-31T04:58:41;12.65;;;5.50;;
25948;SDS011;13961;51.178;4.448;2023-07-31T05:01:06;10.13;;;5.63;;
25948;SDS011;13961;51.178;4.448;2023-07-31T05:03:32;11.43;;;5.75;;
25948;SDS011;13961;51.178;4.448;2023-07-31T05:05:58;10.25;;;5.57;;
25948;SDS011;13961;51.178;4.448;2023-07-31T05:08:23;12.02;;;5.88;;
25948;SDS011;13961;51.178;4.448;2023-07-31T05:10:49;8.75;;;5.50;;
25948;SDS011;13961;51.178;4.448;2023-07-31T05:13:15;9.63;;;5.80;;
25948;SDS011;13961;51.178;4.448;2023-07-31T05:15:41;10.85;;;5.68;;
25948;SDS011;13961;51.178;4.448;2023-07-31T05:18:09;10.15;;;6.00;;
25948;SDS011;13961;51.178;4.448;2023-07-31T05:20:35;11.73;;;6.20;;
25948;SDS011;13961;51.178;4.448;2023-07-31T05:23:01;11.45;;;6.10;;
25948;SDS011;13961;51.178;4.448;2023-07-31T05:25:27;11.05;;;6.25;;
25948;SDS011;13961;51.178;4.448;2023-07-31T05:27:53;14.23;;;6.20;;
25948;SDS011;13961;51.178;4.448;2023-07-31T05:30:18;9.55;;;6.18;;
25948;SDS011;13961;51.178;4.448;2023-07-31T05:32:44;12.45;;;6.10;;
25948;SDS011;13961;51.178;4.448;2023-07-31T05:35:10;9.63;;;6.38;;
25948;SDS011;13961;51.178;4.448;2023-07-31T05:37:36;13.05;;;6.55;;
25948;SDS011;13961;51.178;4.448;2023-07-31T05:40:01;16.55;;;7.03;;
25948;SDS011;13961;51.178;4.448;2023-07-31T05:42:27;10.55;;;6.53;;
25948;SDS011;13961;51.178;4.448;2023-07-31T05:44:53;12.75;;;6.65;;
25948;SDS011;13961;51.178;4.448;2023-07-31T05:47:18;12.18;;;6.47;;
25948;SDS011;13961;51.178;4.448;2023-07-31T05:49:44;18.55;;;6.47;;
25948;SDS011;13961;51.178;4.448;2023-07-31T05:52:10;9.80;;;5.85;;
25948;SDS011;13961;51.178;4.448;2023-07-31T05:54:36;8.57;;;5.82;;
25948;SDS011;13961;51.178;4.448;2023-07-31T05:57:01;11.77;;;6.45;;
25948;SDS011;13961;51.178;4.448;2023-07-31T05:59:27;9.48;;;6.32;;
25948;SDS011;13961;51.178;4.448;2023-07-31T06:01:53;14.00;;;6.97;;
25948;SDS011;13961;51.178;4.448;2023-07-31T06:04:18;10.82;;;6.15;;
25948;SDS011;13961;51.178;4.448;2023-07-31T06:06:44;13.43;;;6.93;;
25948;SDS011;13961;51.178;4.448;2023-07-31T06:09:10;10.75;;;6.50;;
25948;SDS011;13961;51.178;4.448;2023-07-31T06:11:36;13.35;;;6.50;;
25948;SDS011;13961;51.178;4.448;2023-07-31T06:14:03;19.08;;;7.07;;
25948;SDS011;13961;51.178;4.448;2023-07-31T06:18:58;15.10;;;7.57;;
25948;SDS011;13961;51.178;4.448;2023-07-31T06:21:24;13.18;;;6.97;;
25948;SDS011;13961;51.178;4.448;2023-07-31T06:23:50;14.20;;;7.10;;
25948;SDS011;13961;51.178;4.448;2023-07-31T06:26:15;12.45;;;7.20;;
25948;SDS011;13961;51.178;4.448;2023-07-31T06:28:42;16.60;;;7.22;;
25948;SDS011;13961;51.178;4.448;2023-07-31T06:31:08;12.65;;;7.22;;
25948;SDS011;13961;51.178;4.448;2023-07-31T06:33:34;13.63;;;7.10;;
25948;SDS011;13961;51.178;4.448;2023-07-31T06:36:01;13.38;;;6.55;;
25948;SDS011;13961;51.178;4.448;2023-07-31T06:38:27;10.55;;;6.15;;
25948;SDS011;13961;51.178;4.448;2023-07-31T06:40:53;9.50;;;6.07;;
25948;SDS011;13961;51.178;4.448;2023-07-31T06:43:19;9.80;;;5.80;;
25948;SDS011;13961;51.178;4.448;2023-07-31T06:45:46;9.90;;;5.65;;
25948;SDS011;13961;51.178;4.448;2023-07-31T06:48:14;7.63;;;5.53;;
25948;SDS011;13961;51.178;4.448;2023-07-31T06:50:41;11.10;;;4.70;;
25948;SDS011;13961;51.178;4.448;2023-07-31T06:53:06;10.75;;;5.55;;
25948;SDS011;13961;51.178;4.448;2023-07-31T06:55:32;10.20;;;5.32;;
25948;SDS011;13961;51.178;4.448;2023-07-31T06:57:59;13.80;;;5.25;;
25948;SDS011;13961;51.178;4.448;2023-07-31T07:00:26;11.02;;;5.65;;
25948;SDS011;13961;51.178;4.448;2023-07-31T07:02:53;13.20;;;5.38;;
25948;SDS011;13961;51.178;4.448;2023-07-31T07:05:20;8.90;;;5.25;;
25948;SDS011;13961;51.178;4.448;2023-07-31T07:07:48;10.38;;;5.18;;
25948;SDS011;13961;51.178;4.448;2023-07-31T07:10:16;12.02;;;5.68;;
25948;SDS011;13961;51.178;4.448;2023-07-31T07:15:13;9.50;;;5.32;;
25948;SDS011;13961;51.178;4.448;2023-07-31T07:17:39;11.05;;;5.47;;
25948;SDS011;13961;51.178;4.448;2023-07-31T07:20:05;8.90;;;5.28;;
25948;SDS011;13961;51.178;4.448;2023-07-31T07:22:31;11.52;;;5.38;;
25948;SDS011;13961;51.178;4.448;2023-07-31T07:24:59;13.38;;;5.10;;
25948;SDS011;13961;51.178;4.448;2023-07-31T07:27:25;13.68;;;5.47;;
25948;SDS011;13961;51.178;4.448;2023-07-31T07:29:52;10.32;;;4.75;;
25948;SDS011;13961;51.178;4.448;2023-07-31T07:32:18;10.75;;;5.07;;
25948;SDS011;13961;51.178;4.448;2023-07-31T07:34:44;8.05;;;4.82;;
25948;SDS011;13961;51.178;4.448;2023-07-31T07:37:12;10.65;;;4.82;;
25948;SDS011;13961;51.178;4.448;2023-07-31T07:39:37;10.88;;;5.03;;
25948;SDS011;13961;51.178;4.448;2023-07-31T07:42:03;12.38;;;5.30;;
25948;SDS011;13961;51.178;4.448;2023-07-31T07:44:29;12.60;;;4.72;;
25948;SDS011;13961;51.178;4.448;2023-07-31T07:46:55;9.68;;;4.47;;
25948;SDS011;13961;51.178;4.448;2023-07-31T07:49:23;10.93;;;4.88;;
25948;SDS011;13961;51.178;4.448;2023-07-31T07:51:50;9.52;;;4.53;;
25948;SDS011;13961;51.178;4.448;2023-07-31T07:54:16;10.30;;;5.10;;
25948;SDS011;13961;51.178;4.448;2023-07-31T07:56:44;11.38;;;4.65;;
25948;SDS011;13961;51.178;4.448;2023-07-31T07:59:11;8.63;;;4.45;;
25948;SDS011;13961;51.178;4.448;2023-07-31T08:01:37;10.65;;;4.63;;
25948;SDS011;13961;51.178;4.448;2023-07-31T08:04:02;10.95;;;4.40;;
25948;SDS011;13961;51.178;4.448;2023-07-31T08:06:28;10.00;;;4.47;;
25948;SDS011;13961;51.178;4.448;2023-07-31T08:08:55;11.20;;;4.10;;
25948;SDS011;13961;51.178;4.448;2023-07-31T08:11:22;9.00;;;4.20;;
25948;SDS011;13961;51.178;4.448;2023-07-31T08:13:49;9.23;;;4.22;;
25948;SDS011;13961;51.178;4.448;2023-07-31T08:16:15;6.72;;;3.80;;
25948;SDS011;13961;51.178;4.448;2023-07-31T08:18:42;9.30;;;4.28;;
25948;SDS011;13961;51.178;4.448;2023-07-31T08:21:08;8.60;;;4.13;;
25948;SDS011;13961;51.178;4.448;2023-07-31T08:23:34;7.30;;;4.10;;
25948;SDS011;13961;51.178;4.448;2023-07-31T08:26:00;8.23;;;4.10;;
25948;SDS011;13961;51.178;4.448;2023-07-31T08:28:26;7.25;;;3.75;;
25948;SDS011;13961;51.178;4.448;2023-07-31T08:30:51;9.40;;;3.95;;
25948;SDS011;13961;51.178;4.448;2023-07-31T08:33:17;6.65;;;3.72;;
25948;SDS011;13961;51.178;4.448;2023-07-31T08:35:43;7.13;;;4.15;;
25948;SDS011;13961;51.178;4.448;2023-07-31T08:38:08;7.85;;;3.60;;
25948;SDS011;13961;51.178;4.448;2023-07-31T08:40:37;9.57;;;4.25;;
25948;SDS011;13961;51.178;4.448;2023-07-31T08:43:03;7.40;;;4.07;;
25948;SDS011;13961;51.178;4.448;2023-07-31T08:45:29;7.68;;;3.80;;
25948;SDS011;13961;51.178;4.448;2023-07-31T08:47:56;7.93;;;3.50;;
25948;SDS011;13961;51.178;4.448;2023-07-31T08:50:23;7.55;;;3.60;;
25948;SDS011;13961;51.178;4.448;2023-07-31T08:52:49;10.43;;;4.13;;
25948;SDS011;13961;51.178;4.448;2023-07-31T08:55:16;5.55;;;3.25;;
25948;SDS011;13961;51.178;4.448;2023-07-31T08:57:42;9.20;;;3.50;;
25948;SDS011;13961;51.178;4.448;2023-07-31T09:00:09;7.28;;;3.60;;
25948;SDS011;13961;51.178;4.448;2023-07-31T09:02:54;4.50;;;3.05;;
25948;SDS011;13961;51.178;4.448;2023-07-31T09:05:26;9.77;;;3.20;;
25948;SDS011;13961;51.178;4.448;2023-07-31T09:07:52;6.10;;;3.17;;
25948;SDS011;13961;51.178;4.448;2023-07-31T09:10:20;5.35;;;3.00;;
25948;SDS011;13961;51.178;4.448;2023-07-31T09:12:47;6.28;;;2.97;;
25948;SDS011;13961;51.178;4.448;2023-07-31T09:15:14;7.78;;;3.20;;
25948;SDS011;13961;51.178;4.448;2023-07-31T09:17:40;4.32;;;3.00;;
25948;SDS011;13961;51.178;4.448;2023-07-31T09:22:42;7.30;;;3.50;;
25948;SDS011;13961;51.178;4.448;2023-07-31T09:27:51;5.97;;;3.47;;
25948;SDS011;13961;51.178;4.448;2023-07-31T09:30:22;5.15;;;3.28;;
25948;SDS011;13961;51.178;4.448;2023-07-31T09:32:49;5.30;;;3.35;;
25948;SDS011;13961;51.178;4.448;2023-07-31T09:37:52;6.35;;;3.38;;
25948;SDS011;13961;51.178;4.448;2023-07-31T09:40:31;8.43;;;3.45;;
25948;SDS011;13961;51.178;4.448;2023-07-31T09:42:59;5.63;;;3.20;;
25948;SDS011;13961;51.178;4.448;2023-07-31T09:45:26;7.28;;;3.20;;
25948;SDS011;13961;51.178;4.448;2023-07-31T09:47:52;7.25;;;3.10;;
25948;SDS011;13961;51.178;4.448;2023-07-31T09:50:19;7.13;;;3.47;;
25948;SDS011;13961;51.178;4.448;2023-07-31T09:52:46;6.35;;;3.35;;
25948;SDS011;13961;51.178;4.448;2023-07-31T09:55:12;5.43;;;3.28;;
25948;SDS011;13961;51.178;4.448;2023-07-31T09:57:42;7.15;;;3.45;;
25948;SDS011;13961;51.178;4.448;2023-07-31T10:00:10;4.18;;;3.05;;
25948;SDS011;13961;51.178;4.448;2023-07-31T10:02:41;6.53;;;3.53;;
25948;SDS011;13961;51.178;4.448;2023-07-31T10:05:12;8.35;;;3.90;;
25948;SDS011;13961;51.178;4.448;2023-07-31T10:07:41;7.75;;;3.80;;
25948;SDS011;13961;51.178;4.448;2023-07-31T10:10:10;7.35;;;3.67;;
25948;SDS011;13961;51.178;4.448;2023-07-31T10:12:39;10.32;;;4.78;;
25948;SDS011;13961;51.178;4.448;2023-07-31T10:15:05;7.90;;;4.07;;
25948;SDS011;13961;51.178;4.448;2023-07-31T10:17:33;9.15;;;4.18;;
25948;SDS011;13961;51.178;4.448;2023-07-31T10:20:01;6.00;;;3.75;;
25948;SDS011;13961;51.178;4.448;2023-07-31T10:22:30;7.35;;;3.83;;
25948;SDS011;13961;51.178;4.448;2023-07-31T10:25:00;7.00;;;3.78;;
25948;SDS011;13961;51.178;4.448;2023-07-31T10:27:26;5.15;;;3.42;;
25948;SDS011;13961;51.178;4.448;2023-07-31T10:29:54;8.02;;;3.05;;
25948;SDS011;13961;51.178;4.448;2023-07-31T10:32:21;6.63;;;3.50;;
25948;SDS011;13961;51.178;4.448;2023-07-31T10:34:49;5.80;;;3.00;;
25948;SDS011;13961;51.178;4.448;2023-07-31T10:37:23;7.22;;;3.35;;
25948;SDS011;13961;51.178;4.448;2023-07-31T10:39:56;7.60;;;3.22;;
25948;SDS011;13961;51.178;4.448;2023-07-31T10:45:03;8.82;;;3.95;;
25948;SDS011;13961;51.178;4.448;2023-07-31T10:47:30;6.70;;;3.83;;
25948;SDS011;13961;51.178;4.448;2023-07-31T10:50:15;5.30;;;4.28;;
25948;SDS011;13961;51.178;4.448;2023-07-31T10:52:48;9.13;;;4.10;;
25948;SDS011;13961;51.178;4.448;2023-07-31T10:57:55;6.38;;;4.28;;
25948;SDS011;13961;51.178;4.448;2023-07-31T11:00:31;8.13;;;4.13;;
25948;SDS011;13961;51.178;4.448;2023-07-31T11:05:40;8.23;;;4.60;;
25948;SDS011;13961;51.178;4.448;2023-07-31T11:10:38;6.80;;;4.63;;
25948;SDS011;13961;51.178;4.448;2023-07-31T11:13:06;10.32;;;5.00;;
25948;SDS011;13961;51.178;4.448;2023-07-31T11:15:32;8.57;;;4.75;;
25948;SDS011;13961;51.178;4.448;2023-07-31T11:17:59;7.80;;;4.70;;
25948;SDS011;13961;51.178;4.448;2023-07-31T11:20:32;10.18;;;5.57;;
25948;SDS011;13961;51.178;4.448;2023-07-31T11:22:58;9.00;;;5.13;;
25948;SDS011;13961;51.178;4.448;2023-07-31T11:25:31;13.30;;;5.75;;
25948;SDS011;13961;51.178;4.448;2023-07-31T11:28:07;10.55;;;5.55;;
25948;SDS011;13961;51.178;4.448;2023-07-31T11:30:34;15.52;;;5.57;;
25948;SDS011;13961;51.178;4.448;2023-07-31T11:33:04;10.40;;;5.57;;
25948;SDS011;13961;51.178;4.448;2023-07-31T11:35:31;14.68;;;5.85;;
25948;SDS011;13961;51.178;4.448;2023-07-31T11:37:59;9.68;;;5.43;;
25948;SDS011;13961;51.178;4.448;2023-07-31T11:40:25;8.50;;;4.97;;
25948;SDS011;13961;51.178;4.448;2023-07-31T11:42:55;12.98;;;5.65;;
25948;SDS011;13961;51.178;4.448;2023-07-31T11:45:28;15.05;;;5.70;;
25948;SDS011;13961;51.178;4.448;2023-07-31T11:47:55;10.57;;;5.55;;
25948;SDS011;13961;51.178;4.448;2023-07-31T11:50:22;9.38;;;5.13;;
25948;SDS011;13961;51.178;4.448;2023-07-31T11:52:57;10.20;;;5.10;;
25948;SDS011;13961;51.178;4.448;2023-07-31T11:55:25;10.93;;;5.68;;
25948;SDS011;13961;51.178;4.448;2023-07-31T11:57:52;9.02;;;4.95;;
25948;SDS011;13961;51.178;4.448;2023-07-31T12:00:19;10.10;;;5.38;;
25948;SDS011;13961;51.178;4.448;2023-07-31T12:02:46;12.25;;;5.47;;
25948;SDS011;13961;51.178;4.448;2023-07-31T12:05:12;10.23;;;5.10;;
25948;SDS011;13961;51.178;4.448;2023-07-31T12:10:33;7.60;;;4.75;;
25948;SDS011;13961;51.178;4.448;2023-07-31T12:15:39;12.63;;;4.88;;
25948;SDS011;13961;51.178;4.448;2023-07-31T12:18:07;11.50;;;5.07;;
25948;SDS011;13961;51.178;4.448;2023-07-31T12:20:47;8.00;;;4.82;;
25948;SDS011;13961;51.178;4.448;2023-07-31T12:23:18;12.55;;;4.90;;
25948;SDS011;13961;51.178;4.448;2023-07-31T12:26:02;8.73;;;5.07;;
25948;SDS011;13961;51.178;4.448;2023-07-31T12:28:40;7.57;;;4.25;;
25948;SDS011;13961;51.178;4.448;2023-07-31T12:31:10;10.55;;;4.85;;
25948;SDS011;13961;51.178;4.448;2023-07-31T12:33:39;10.77;;;4.93;;
25948;SDS011;13961;51.178;4.448;2023-07-31T12:36:12;8.93;;;5.05;;
25948;SDS011;13961;51.178;4.448;2023-07-31T12:38:40;9.15;;;4.97;;
25948;SDS011;13961;51.178;4.448;2023-07-31T12:41:06;10.95;;;5.20;;
25948;SDS011;13961;51.178;4.448;2023-07-31T12:43:36;9.48;;;4.90;;
25948;SDS011;13961;51.178;4.448;2023-07-31T12:46:03;8.50;;;4.80;;
25948;SDS011;13961;51.178;4.448;2023-07-31T12:48:29;12.60;;;5.18;;
25948;SDS011;13961;51.178;4.448;2023-07-31T12:50:54;9.70;;;4.63;;
25948;SDS011;13961;51.178;4.448;2023-07-31T12:53:20;11.98;;;4.75;;
25948;SDS011;13961;51.178;4.448;2023-07-31T12:55:47;12.52;;;5.05;;
25948;SDS011;13961;51.178;4.448;2023-07-31T12:58:13;8.98;;;4.90;;
25948;SDS011;13961;51.178;4.448;2023-07-31T13:00:38;12.57;;;5.20;;
25948;SDS011;13961;51.178;4.448;2023-07-31T13:03:04;14.95;;;4.97;;
25948;SDS011;13961;51.178;4.448;2023-07-31T13:05:30;10.50;;;4.47;;
25948;SDS011;13961;51.178;4.448;2023-07-31T13:07:56;8.05;;;4.40;;
25948;SDS011;13961;51.178;4.448;2023-07-31T13:10:22;11.15;;;5.03;;
25948;SDS011;13961;51.178;4.448;2023-07-31T13:12:48;8.85;;;4.50;;
25948;SDS011;13961;51.178;4.448;2023-07-31T13:15:14;7.70;;;3.80;;
25948;SDS011;13961;51.178;4.448;2023-07-31T13:17:40;10.70;;;4.68;;
25948;SDS011;13961;51.178;4.448;2023-07-31T13:20:06;10.20;;;5.03;;
25948;SDS011;13961;51.178;4.448;2023-07-31T13:22:32;7.88;;;4.13;;
25948;SDS011;13961;51.178;4.448;2023-07-31T13:24:58;9.55;;;4.80;;
25948;SDS011;13961;51.178;4.448;2023-07-31T13:27:25;9.63;;;4.30;;
25948;SDS011;13961;51.178;4.448;2023-07-31T13:29:51;7.55;;;4.43;;
25948;SDS011;13961;51.178;4.448;2023-07-31T13:32:17;7.30;;;4.07;;
25948;SDS011;13961;51.178;4.448;2023-07-31T13:34:44;11.48;;;5.30;;
25948;SDS011;13961;51.178;4.448;2023-07-31T13:37:11;10.25;;;4.40;;
25948;SDS011;13961;51.178;4.448;2023-07-31T13:39:36;9.77;;;5.20;;
25948;SDS011;13961;51.178;4.448;2023-07-31T13:42:03;11.50;;;5.32;;
25948;SDS011;13961;51.178;4.448;2023-07-31T13:44:31;11.35;;;4.93;;
25948;SDS011;13961;51.178;4.448;2023-07-31T13:46:57;8.07;;;4.20;;
25948;SDS011;13961;51.178;4.448;2023-07-31T13:49:23;7.13;;;3.80;;
25948;SDS011;13961;51.178;4.448;2023-07-31T13:51:49;8.35;;;4.03;;
25948;SDS011;13961;51.178;4.448;2023-07-31T13:54:15;6.35;;;4.20;;
25948;SDS011;13961;51.178;4.448;2023-07-31T13:56:40;7.55;;;3.00;;
25948;SDS011;13961;51.178;4.448;2023-07-31T13:59:07;4.80;;;3.13;;
25948;SDS011;13961;51.178;4.448;2023-07-31T14:01:33;5.80;;;2.85;;
25948;SDS011;13961;51.178;4.448;2023-07-31T14:03:58;6.70;;;3.00;;
25948;SDS011;13961;51.178;4.448;2023-07-31T14:06:24;5.47;;;2.75;;
25948;SDS011;13961;51.178;4.448;2023-07-31T14:08:50;3.92;;;2.25;;
25948;SDS011;13961;51.178;4.448;2023-07-31T14:11:15;4.30;;;2.33;;
25948;SDS011;13961;51.178;4.448;2023-07-31T14:13:41;5.45;;;2.60;;
25948;SDS011;13961;51.178;4.448;2023-07-31T14:16:07;3.00;;;1.85;;
25948;SDS011;13961;51.178;4.448;2023-07-31T14:18:32;2.72;;;1.70;;
25948;SDS011;13961;51.178;4.448;2023-07-31T14:20:58;4.03;;;2.33;;
25948;SDS011;13961;51.178;4.448;2023-07-31T14:23:24;2.15;;;1.90;;
25948;SDS011;13961;51.178;4.448;2023-07-31T14:25:50;3.92;;;2.25;;
25948;SDS011;13961;51.178;4.448;2023-07-31T14:28:16;3.42;;;2.00;;
25948;SDS011;13961;51.178;4.448;2023-07-31T14:30:42;3.20;;;1.88;;
25948;SDS011;13961;51.178;4.448;2023-07-31T14:33:09;2.80;;;2.03;;
25948;SDS011;13961;51.178;4.448;2023-07-31T14:35:35;2.58;;;1.92;;
25948;SDS011;13961;51.178;4.448;2023-07-31T14:38:01;2.80;;;1.90;;
25948;SDS011;13961;51.178;4.448;2023-07-31T14:40:27;4.63;;;2.58;;
25948;SDS011;13961;51.178;4.448;2023-07-31T14:42:53;4.28;;;2.53;;
25948;SDS011;13961;51.178;4.448;2023-07-31T14:45:18;5.28;;;2.63;;
25948;SDS011;13961;51.178;4.448;2023-07-31T14:47:44;4.47;;;2.50;;
25948;SDS011;13961;51.178;4.448;2023-07-31T14:50:10;4.25;;;2.67;;
25948;SDS011;13961;51.178;4.448;2023-07-31T14:52:35;7.40;;;2.78;;
25948;SDS011;13961;51.178;4.448;2023-07-31T14:55:01;4.93;;;2.33;;
25948;SDS011;13961;51.178;4.448;2023-07-31T14:57:27;5.90;;;3.00;;
25948;SDS011;13961;51.178;4.448;2023-07-31T14:59:53;5.22;;;3.40;;
25948;SDS011;13961;51.178;4.448;2023-07-31T15:02:19;8.38;;;2.92;;
25948;SDS011;13961;51.178;4.448;2023-07-31T15:04:44;3.78;;;2.83;;
25948;SDS011;13961;51.178;4.448;2023-07-31T15:07:10;5.63;;;3.05;;
25948;SDS011;13961;51.178;4.448;2023-07-31T15:09:36;4.45;;;2.95;;
25948;SDS011;13961;51.178;4.448;2023-07-31T15:12:01;5.53;;;2.80;;
25948;SDS011;13961;51.178;4.448;2023-07-31T15:14:27;5.32;;;2.78;;
25948;SDS011;13961;51.178;4.448;2023-07-31T15:16:55;5.43;;;2.72;;